sensor_id;sensor_type;location;lat;lon;timestamp;P1;durP1;ratioP1;P2;durP2;ratioP2
4915;SDS011;70796;52.406;13.230;2024-03-29T00:00:53;3.80;;;1.20;;
4915;SDS011;70796;52.406;13.230;2024-03-29T00:03:18;3.20;;;0.80;;
4915;SDS011;70796;52.406;13.230;2024-03-29T00:05:46;6.60;;;0.80;;
4915;SDS011;70796;52.406;13.230;2024-03-29T00:08:11;1.90;;;0.87;;
4915;SDS011;70796;52.406;13.230;2024-03-29T00:10:37;3.57;;;0.90;;
4915;SDS011;70796;52.406;13.230;2024-03-29T00:13:03;2.90;;;1.20;;
4915;SDS011;70796;52.406;13.230;2024-03-29T00:15:29;2.20;;;0.87;;
4915;SDS011;70796;52.406;13.230;2024-03-29T00:17:56;1.23;;;1.00;;
4915;SDS011;70796;52.406;13.230;2024-03-29T00:20:22;2.70;;;0.87;;
4915;SDS011;70796;52.406;13.230;2024-03-29T00:22:48;3.20;;;1.10;;
4915;SDS011;70796;52.406;13.230;2024-03-29T00:25:14;2.07;;;0.90;;
4915;SDS011;70796;52.406;13.230;2024-03-29T00:27:39;1.17;;;0.80;;
4915;SDS011;70796;52.406;13.230;2024-03-29T00:30:05;5.00;;;0.93;;
4915;SDS011;70796;52.406;13.230;2024-03-29T00:32:31;1.37;;;0.90;;
4915;SDS011;70796;52.406;13.230;2024-03-29T00:34:56;0.70;;;0.70;;
4915;SDS011;70796;52.406;13.230;2024-03-29T00:37:24;3.73;;;1.00;;
4915;SDS011;70796;52.406;13.230;2024-03-29T00:39:49;2.57;;;0.90;;
4915;SDS011;70796;52.406;13.230;2024-03-29T00:42:15;2.40;;;0.97;;
4915;SDS011;70796;52.406;13.230;2024-03-29T00:44:42;3.27;;;1.00;;
4915;SDS011;70796;52.406;13.230;2024-03-29T00:47:08;2.93;;;1.30;;
4915;SDS011;70796;52.406;13.230;2024-03-29T00:49:34;1.67;;;1.30;;
4915;SDS011;70796;52.406;13.230;2024-03-29T00:51:59;1.30;;;1.00;;
4915;SDS011;70796;52.406;13.230;2024-03-29T00:54:26;1.63;;;1.10;;
4915;SDS011;70796;52.406;13.230;2024-03-29T00:56:51;3.40;;;1.00;;
4915;SDS011;70796;52.406;13.230;2024-03-29T00:59:18;2.93;;;1.30;;
4915;SDS011;70796;52.406;13.230;2024-03-29T01:01:44;1.97;;;0.90;;
4915;SDS011;70796;52.406;13.230;2024-03-29T01:04:10;2.17;;;1.03;;
4915;SDS011;70796;52.406;13.230;2024-03-29T01:06:37;3.70;;;1.00;;
4915;SDS011;70796;52.406;13.230;2024-03-29T01:09:04;1.93;;;1.40;;
4915;SDS011;70796;52.406;13.230;2024-03-29T01:11:32;3.03;;;1.20;;
4915;SDS011;70796;52.406;13.230;2024-03-29T01:13:58;2.83;;;1.00;;
4915;SDS011;70796;52.406;13.230;2024-03-29T01:16:24;1.63;;;1.40;;
4915;SDS011;70796;52.406;13.230;2024-03-29T01:18:49;2.50;;;1.20;;
4915;SDS011;70796;52.406;13.230;2024-03-29T01:21:17;3.23;;;1.30;;
4915;SDS011;70796;52.406;13.230;2024-03-29T01:23:43;8.50;;;1.60;;
4915;SDS011;70796;52.406;13.230;2024-03-29T01:26:09;2.00;;;1.27;;
4915;SDS011;70796;52.406;13.230;2024-03-29T01:28:37;1.43;;;1.10;;
4915;SDS011;70796;52.406;13.230;2024-03-29T01:31:03;3.20;;;1.00;;
4915;SDS011;70796;52.406;13.230;2024-03-29T01:33:28;2.40;;;1.50;;
4915;SDS011;70796;52.406;13.230;2024-03-29T01:35:57;1.97;;;1.40;;
4915;SDS011;70796;52.406;13.230;2024-03-29T01:38:23;1.20;;;1.10;;
4915;SDS011;70796;52.406;13.230;2024-03-29T01:40:48;1.57;;;1.47;;
4915;SDS011;70796;52.406;13.230;2024-03-29T01:43:14;3.63;;;1.57;;
4915;SDS011;70796;52.406;13.230;2024-03-29T01:45:39;3.10;;;1.27;;
4915;SDS011;70796;52.406;13.230;2024-03-29T01:48:07;1.73;;;1.63;;
4915;SDS011;70796;52.406;13.230;2024-03-29T01:50:34;2.63;;;1.70;;
4915;SDS011;70796;52.406;13.230;2024-03-29T01:53:00;2.03;;;1.80;;
4915;SDS011;70796;52.406;13.230;2024-03-29T01:55:26;2.17;;;1.93;;
4915;SDS011;70796;52.406;13.230;2024-03-29T01:57:55;6.30;;;1.93;;
4915;SDS011;70796;52.406;13.230;2024-03-29T02:00:21;3.00;;;1.87;;
4915;SDS011;70796;52.406;13.230;2024-03-29T02:02:49;2.00;;;1.87;;
4915;SDS011;70796;52.406;13.230;2024-03-29T02:05:15;3.83;;;2.00;;
4915;SDS011;70796;52.406;13.230;2024-03-29T02:07:40;2.43;;;1.80;;
4915;SDS011;70796;52.406;13.230;2024-03-29T02:10:09;2.50;;;1.70;;
4915;SDS011;70796;52.406;13.230;2024-03-29T02:12:38;3.13;;;1.90;;
4915;SDS011;70796;52.406;13.230;2024-03-29T02:15:04;2.43;;;1.87;;
4915;SDS011;70796;52.406;13.230;2024-03-29T02:17:31;2.03;;;1.83;;
4915;SDS011;70796;52.406;13.230;2024-03-29T02:19:57;2.37;;;2.10;;
4915;SDS011;70796;52.406;13.230;2024-03-29T02:22:24;3.47;;;2.00;;
4915;SDS011;70796;52.406;13.230;2024-03-29T02:24:50;2.17;;;1.93;;
4915;SDS011;70796;52.406;13.230;2024-03-29T02:27:17;10.90;;;3.00;;
4915;SDS011;70796;52.406;13.230;2024-03-29T02:29:43;3.13;;;1.77;;
4915;SDS011;70796;52.406;13.230;2024-03-29T02:32:09;3.30;;;2.40;;
4915;SDS011;70796;52.406;13.230;2024-03-29T02:34:34;3.90;;;2.20;;
4915;SDS011;70796;52.406;13.230;2024-03-29T02:37:00;2.70;;;2.30;;
4915;SDS011;70796;52.406;13.230;2024-03-29T02:39:28;3.83;;;2.57;;
4915;SDS011;70796;52.406;13.230;2024-03-29T02:41:54;3.90;;;2.33;;
4915;SDS011;70796;52.406;13.230;2024-03-29T02:44:19;2.60;;;2.33;;
4915;SDS011;70796;52.406;13.230;2024-03-29T02:46:45;8.00;;;2.63;;
4915;SDS011;70796;52.406;13.230;2024-03-29T02:49:10;5.43;;;2.43;;
4915;SDS011;70796;52.406;13.230;2024-03-29T02:51:36;4.47;;;2.63;;
4915;SDS011;70796;52.406;13.230;2024-03-29T02:54:02;4.40;;;2.43;;
4915;SDS011;70796;52.406;13.230;2024-03-29T02:56:27;3.03;;;2.00;;
4915;SDS011;70796;52.406;13.230;2024-03-29T02:58:53;2.40;;;2.20;;
4915;SDS011;70796;52.406;13.230;2024-03-29T03:01:18;3.00;;;2.10;;
4915;SDS011;70796;52.406;13.230;2024-03-29T03:03:44;3.50;;;2.53;;
4915;SDS011;70796;52.406;13.230;2024-03-29T03:06:09;2.80;;;2.57;;
4915;SDS011;70796;52.406;13.230;2024-03-29T03:08:35;6.00;;;2.80;;
4915;SDS011;70796;52.406;13.230;2024-03-29T03:11:19;3.63;;;2.43;;
4915;SDS011;70796;52.406;13.230;2024-03-29T03:13:45;5.73;;;2.50;;
4915;SDS011;70796;52.406;13.230;2024-03-29T03:16:10;2.37;;;1.90;;
4915;SDS011;70796;52.406;13.230;2024-03-29T03:18:36;2.23;;;1.93;;
4915;SDS011;70796;52.406;13.230;2024-03-29T03:21:02;8.63;;;2.60;;
4915;SDS011;70796;52.406;13.230;2024-03-29T03:23:27;4.40;;;2.67;;
4915;SDS011;70796;52.406;13.230;2024-03-29T03:25:57;6.00;;;2.50;;
4915;SDS011;70796;52.406;13.230;2024-03-29T03:28:24;5.73;;;2.50;;
4915;SDS011;70796;52.406;13.230;2024-03-29T03:30:50;4.10;;;2.23;;
4915;SDS011;70796;52.406;13.230;2024-03-29T03:33:16;3.17;;;1.90;;
4915;SDS011;70796;52.406;13.230;2024-03-29T03:35:42;5.20;;;2.60;;
4915;SDS011;70796;52.406;13.230;2024-03-29T03:38:08;2.90;;;2.27;;
4915;SDS011;70796;52.406;13.230;2024-03-29T03:40:34;3.07;;;2.20;;
4915;SDS011;70796;52.406;13.230;2024-03-29T03:43:02;3.87;;;2.20;;
4915;SDS011;70796;52.406;13.230;2024-03-29T03:45:28;2.67;;;2.43;;
4915;SDS011;70796;52.406;13.230;2024-03-29T03:47:53;3.03;;;2.20;;
4915;SDS011;70796;52.406;13.230;2024-03-29T03:50:19;4.00;;;2.77;;
4915;SDS011;70796;52.406;13.230;2024-03-29T03:52:45;8.10;;;2.27;;
4915;SDS011;70796;52.406;13.230;2024-03-29T03:55:10;9.83;;;2.60;;
4915;SDS011;70796;52.406;13.230;2024-03-29T03:57:36;2.57;;;2.37;;
4915;SDS011;70796;52.406;13.230;2024-03-29T04:00:01;2.00;;;1.80;;
4915;SDS011;70796;52.406;13.230;2024-03-29T04:02:37;6.00;;;1.80;;
4915;SDS011;70796;52.406;13.230;2024-03-29T04:05:02;2.40;;;2.20;;
4915;SDS011;70796;52.406;13.230;2024-03-29T04:07:28;5.57;;;2.23;;
4915;SDS011;70796;52.406;13.230;2024-03-29T04:09:53;6.30;;;2.20;;
4915;SDS011;70796;52.406;13.230;2024-03-29T04:12:19;5.90;;;2.53;;
4915;SDS011;70796;52.406;13.230;2024-03-29T04:14:45;4.93;;;2.53;;
4915;SDS011;70796;52.406;13.230;2024-03-29T04:17:10;4.57;;;2.17;;
4915;SDS011;70796;52.406;13.230;2024-03-29T04:19:37;2.23;;;1.90;;
4915;SDS011;70796;52.406;13.230;2024-03-29T04:22:03;2.23;;;1.90;;
4915;SDS011;70796;52.406;13.230;2024-03-29T04:24:28;2.00;;;1.57;;
4915;SDS011;70796;52.406;13.230;2024-03-29T04:26:54;2.03;;;1.87;;
4915;SDS011;70796;52.406;13.230;2024-03-29T04:29:21;2.10;;;1.60;;
4915;SDS011;70796;52.406;13.230;2024-03-29T04:31:47;1.83;;;1.70;;
4915;SDS011;70796;52.406;13.230;2024-03-29T04:34:12;6.20;;;1.77;;
4915;SDS011;70796;52.406;13.230;2024-03-29T04:36:38;4.93;;;1.60;;
4915;SDS011;70796;52.406;13.230;2024-03-29T04:39:03;2.53;;;1.67;;
4915;SDS011;70796;52.406;13.230;2024-03-29T04:41:29;6.30;;;1.67;;
4915;SDS011;70796;52.406;13.230;2024-03-29T04:43:59;2.37;;;1.67;;
4915;SDS011;70796;52.406;13.230;2024-03-29T04:46:25;9.60;;;1.40;;
4915;SDS011;70796;52.406;13.230;2024-03-29T04:48:51;2.20;;;1.80;;
4915;SDS011;70796;52.406;13.230;2024-03-29T04:51:17;5.13;;;1.40;;
4915;SDS011;70796;52.406;13.230;2024-03-29T04:53:42;1.53;;;1.40;;
4915;SDS011;70796;52.406;13.230;2024-03-29T04:56:07;3.70;;;1.50;;
4915;SDS011;70796;52.406;13.230;2024-03-29T04:58:34;2.57;;;1.47;;
4915;SDS011;70796;52.406;13.230;2024-03-29T05:00:59;3.63;;;1.53;;
4915;SDS011;70796;52.406;13.230;2024-03-29T05:03:25;4.70;;;1.60;;
4915;SDS011;70796;52.406;13.230;2024-03-29T05:05:50;2.00;;;1.27;;
4915;SDS011;70796;52.406;13.230;2024-03-29T05:08:17;1.83;;;1.07;;
4915;SDS011;70796;52.406;13.230;2024-03-29T05:10:44;3.40;;;1.90;;
4915;SDS011;70796;52.406;13.230;2024-03-29T05:13:10;1.77;;;1.63;;
4915;SDS011;70796;52.406;13.230;2024-03-29T05:15:36;2.70;;;1.50;;
4915;SDS011;70796;52.406;13.230;2024-03-29T05:18:02;1.50;;;1.40;;
4915;SDS011;70796;52.406;13.230;2024-03-29T05:20:27;3.77;;;1.30;;
4915;SDS011;70796;52.406;13.230;2024-03-29T05:22:53;1.83;;;1.43;;
4915;SDS011;70796;52.406;13.230;2024-03-29T05:25:19;1.57;;;1.13;;
4915;SDS011;70796;52.406;13.230;2024-03-29T05:27:44;2.03;;;1.23;;
4915;SDS011;70796;52.406;13.230;2024-03-29T05:30:10;2.30;;;1.17;;
4915;SDS011;70796;52.406;13.230;2024-03-29T05:32:36;4.07;;;1.60;;
4915;SDS011;70796;52.406;13.230;2024-03-29T05:35:01;5.70;;;1.67;;
4915;SDS011;70796;52.406;13.230;2024-03-29T05:37:28;2.93;;;1.50;;
4915;SDS011;70796;52.406;13.230;2024-03-29T05:39:54;5.03;;;1.23;;
4915;SDS011;70796;52.406;13.230;2024-03-29T05:42:28;1.80;;;1.20;;
4915;SDS011;70796;52.406;13.230;2024-03-29T05:44:55;1.93;;;1.10;;
4915;SDS011;70796;52.406;13.230;2024-03-29T05:47:20;1.47;;;1.07;;
4915;SDS011;70796;52.406;13.230;2024-03-29T05:49:46;2.53;;;1.33;;
4915;SDS011;70796;52.406;13.230;2024-03-29T05:52:12;1.97;;;1.40;;
4915;SDS011;70796;52.406;13.230;2024-03-29T05:54:41;1.40;;;1.30;;
4915;SDS011;70796;52.406;13.230;2024-03-29T05:57:07;6.03;;;1.50;;
4915;SDS011;70796;52.406;13.230;2024-03-29T05:59:33;2.93;;;1.17;;
4915;SDS011;70796;52.406;13.230;2024-03-29T06:02:14;2.20;;;1.10;;
4915;SDS011;70796;52.406;13.230;2024-03-29T06:04:40;2.87;;;1.23;;
4915;SDS011;70796;52.406;13.230;2024-03-29T06:07:06;2.37;;;1.23;;
4915;SDS011;70796;52.406;13.230;2024-03-29T06:09:33;2.30;;;1.30;;
4915;SDS011;70796;52.406;13.230;2024-03-29T06:11:59;1.90;;;1.03;;
4915;SDS011;70796;52.406;13.230;2024-03-29T06:14:25;3.50;;;1.20;;
4915;SDS011;70796;52.406;13.230;2024-03-29T06:17:10;1.87;;;1.50;;
4915;SDS011;70796;52.406;13.230;2024-03-29T06:19:48;2.90;;;1.10;;
4915;SDS011;70796;52.406;13.230;2024-03-29T06:22:21;1.70;;;1.03;;
4915;SDS011;70796;52.406;13.230;2024-03-29T06:24:46;3.60;;;1.13;;
4915;SDS011;70796;52.406;13.230;2024-03-29T06:27:13;3.57;;;0.90;;
4915;SDS011;70796;52.406;13.230;2024-03-29T06:29:42;4.07;;;1.13;;
4915;SDS011;70796;52.406;13.230;2024-03-29T06:32:09;4.00;;;1.10;;
4915;SDS011;70796;52.406;13.230;2024-03-29T06:34:34;4.00;;;1.30;;
4915;SDS011;70796;52.406;13.230;2024-03-29T06:37:00;9.43;;;1.40;;
4915;SDS011;70796;52.406;13.230;2024-03-29T06:39:28;2.43;;;1.20;;
4915;SDS011;70796;52.406;13.230;2024-03-29T06:41:53;2.60;;;1.10;;
4915;SDS011;70796;52.406;13.230;2024-03-29T06:44:19;1.97;;;1.30;;
4915;SDS011;70796;52.406;13.230;2024-03-29T06:46:48;2.17;;;1.40;;
4915;SDS011;70796;52.406;13.230;2024-03-29T06:49:14;3.10;;;1.10;;
4915;SDS011;70796;52.406;13.230;2024-03-29T06:51:40;3.87;;;1.57;;
4915;SDS011;70796;52.406;13.230;2024-03-29T06:54:06;2.73;;;1.47;;
4915;SDS011;70796;52.406;13.230;2024-03-29T06:56:31;3.17;;;1.20;;
4915;SDS011;70796;52.406;13.230;2024-03-29T06:58:58;3.37;;;1.40;;
4915;SDS011;70796;52.406;13.230;2024-03-29T07:01:24;3.53;;;1.23;;
4915;SDS011;70796;52.406;13.230;2024-03-29T07:03:49;2.47;;;1.50;;
4915;SDS011;70796;52.406;13.230;2024-03-29T07:06:15;2.20;;;1.20;;
4915;SDS011;70796;52.406;13.230;2024-03-29T07:08:40;2.30;;;0.93;;
4915;SDS011;70796;52.406;13.230;2024-03-29T07:11:06;2.03;;;1.20;;
4915;SDS011;70796;52.406;13.230;2024-03-29T07:13:31;2.37;;;1.40;;
4915;SDS011;70796;52.406;13.230;2024-03-29T07:16:00;2.60;;;1.30;;
4915;SDS011;70796;52.406;13.230;2024-03-29T07:18:27;3.53;;;1.63;;
4915;SDS011;70796;52.406;13.230;2024-03-29T07:20:52;1.57;;;1.07;;
4915;SDS011;70796;52.406;13.230;2024-03-29T07:23:18;1.77;;;1.17;;
4915;SDS011;70796;52.406;13.230;2024-03-29T07:25:56;2.80;;;1.27;;
4915;SDS011;70796;52.406;13.230;2024-03-29T07:28:23;7.50;;;1.40;;
4915;SDS011;70796;52.406;13.230;2024-03-29T07:30:49;5.27;;;1.50;;
4915;SDS011;70796;52.406;13.230;2024-03-29T07:33:15;2.93;;;1.20;;
4915;SDS011;70796;52.406;13.230;2024-03-29T07:35:41;2.40;;;1.50;;
4915;SDS011;70796;52.406;13.230;2024-03-29T07:38:07;2.33;;;1.20;;
4915;SDS011;70796;52.406;13.230;2024-03-29T07:40:32;7.33;;;1.40;;
4915;SDS011;70796;52.406;13.230;2024-03-29T07:42:57;2.20;;;1.40;;
4915;SDS011;70796;52.406;13.230;2024-03-29T07:45:24;2.43;;;1.37;;
4915;SDS011;70796;52.406;13.230;2024-03-29T07:47:50;4.63;;;1.40;;
4915;SDS011;70796;52.406;13.230;2024-03-29T07:50:17;1.30;;;1.20;;
4915;SDS011;70796;52.406;13.230;2024-03-29T07:52:46;3.80;;;1.33;;
4915;SDS011;70796;52.406;13.230;2024-03-29T07:55:13;1.63;;;1.00;;
4915;SDS011;70796;52.406;13.230;2024-03-29T07:57:38;2.90;;;1.30;;
4915;SDS011;70796;52.406;13.230;2024-03-29T08:00:04;2.27;;;1.30;;
4915;SDS011;70796;52.406;13.230;2024-03-29T08:02:34;3.03;;;1.17;;
4915;SDS011;70796;52.406;13.230;2024-03-29T08:04:59;2.83;;;1.10;;
4915;SDS011;70796;52.406;13.230;2024-03-29T08:07:25;4.80;;;1.40;;
4915;SDS011;70796;52.406;13.230;2024-03-29T08:09:50;1.80;;;1.10;;
4915;SDS011;70796;52.406;13.230;2024-03-29T08:12:16;5.70;;;1.10;;
4915;SDS011;70796;52.406;13.230;2024-03-29T08:14:41;1.77;;;1.60;;
4915;SDS011;70796;52.406;13.230;2024-03-29T08:17:07;4.57;;;1.40;;
4915;SDS011;70796;52.406;13.230;2024-03-29T08:19:39;3.20;;;1.50;;
4915;SDS011;70796;52.406;13.230;2024-03-29T08:22:06;4.23;;;1.20;;
4915;SDS011;70796;52.406;13.230;2024-03-29T08:24:32;3.43;;;1.53;;
4915;SDS011;70796;52.406;13.230;2024-03-29T08:26:58;1.70;;;1.10;;
4915;SDS011;70796;52.406;13.230;2024-03-29T08:29:24;2.57;;;1.23;;
4915;SDS011;70796;52.406;13.230;2024-03-29T08:31:52;6.17;;;1.50;;
4915;SDS011;70796;52.406;13.230;2024-03-29T08:34:17;2.80;;;1.40;;
4915;SDS011;70796;52.406;13.230;2024-03-29T08:36:49;1.70;;;1.40;;
4915;SDS011;70796;52.406;13.230;2024-03-29T08:39:14;1.30;;;1.20;;
4915;SDS011;70796;52.406;13.230;2024-03-29T08:41:42;1.70;;;1.27;;
4915;SDS011;70796;52.406;13.230;2024-03-29T08:44:11;4.70;;;1.70;;
4915;SDS011;70796;52.406;13.230;2024-03-29T08:46:40;2.33;;;1.53;;
4915;SDS011;70796;52.406;13.230;2024-03-29T08:49:05;3.27;;;2.03;;
4915;SDS011;70796;52.406;13.230;2024-03-29T08:51:31;5.23;;;1.67;;
4915;SDS011;70796;52.406;13.230;2024-03-29T08:53:57;5.00;;;1.53;;
4915;SDS011;70796;52.406;13.230;2024-03-29T08:56:23;3.00;;;1.60;;
4915;SDS011;70796;52.406;13.230;2024-03-29T08:58:49;5.67;;;1.80;;
4915;SDS011;70796;52.406;13.230;2024-03-29T09:01:15;3.43;;;1.60;;
4915;SDS011;70796;52.406;13.230;2024-03-29T09:03:40;3.23;;;1.43;;
4915;SDS011;70796;52.406;13.230;2024-03-29T09:06:07;2.00;;;1.40;;
4915;SDS011;70796;52.406;13.230;2024-03-29T09:08:34;1.50;;;1.03;;
4915;SDS011;70796;52.406;13.230;2024-03-29T09:10:59;1.30;;;1.00;;
4915;SDS011;70796;52.406;13.230;2024-03-29T09:13:26;2.10;;;1.33;;
4915;SDS011;70796;52.406;13.230;2024-03-29T09:15:51;2.67;;;1.30;;
4915;SDS011;70796;52.406;13.230;2024-03-29T09:18:21;1.77;;;1.30;;
4915;SDS011;70796;52.406;13.230;2024-03-29T09:20:58;3.23;;;1.63;;
4915;SDS011;70796;52.406;13.230;2024-03-29T09:23:24;2.30;;;1.60;;
4915;SDS011;70796;52.406;13.230;2024-03-29T09:25:51;4.30;;;1.40;;
4915;SDS011;70796;52.406;13.230;2024-03-29T09:28:16;2.13;;;1.43;;
4915;SDS011;70796;52.406;13.230;2024-03-29T09:31:55;3.80;;;1.43;;
4915;SDS011;70796;52.406;13.230;2024-03-29T09:34:20;1.10;;;1.00;;
4915;SDS011;70796;52.406;13.230;2024-03-29T09:36:48;2.13;;;1.10;;
4915;SDS011;70796;52.406;13.230;2024-03-29T09:39:15;3.57;;;1.40;;
4915;SDS011;70796;52.406;13.230;2024-03-29T09:41:40;3.50;;;1.20;;
4915;SDS011;70796;52.406;13.230;2024-03-29T09:44:10;1.27;;;1.00;;
4915;SDS011;70796;52.406;13.230;2024-03-29T09:46:36;2.03;;;1.00;;
4915;SDS011;70796;52.406;13.230;2024-03-29T09:49:05;3.37;;;1.10;;
4915;SDS011;70796;52.406;13.230;2024-03-29T09:51:34;1.43;;;1.10;;
4915;SDS011;70796;52.406;13.230;2024-03-29T09:54:00;3.57;;;1.27;;
4915;SDS011;70796;52.406;13.230;2024-03-29T09:56:26;3.43;;;1.60;;
4915;SDS011;70796;52.406;13.230;2024-03-29T09:58:52;5.10;;;1.30;;
4915;SDS011;70796;52.406;13.230;2024-03-29T10:01:18;1.50;;;1.20;;
4915;SDS011;70796;52.406;13.230;2024-03-29T10:03:50;2.40;;;1.20;;
4915;SDS011;70796;52.406;13.230;2024-03-29T10:06:18;3.23;;;1.33;;
4915;SDS011;70796;52.406;13.230;2024-03-29T10:08:45;6.60;;;1.60;;
4915;SDS011;70796;52.406;13.230;2024-03-29T10:11:11;3.40;;;1.47;;
4915;SDS011;70796;52.406;13.230;2024-03-29T10:13:37;5.43;;;1.10;;
4915;SDS011;70796;52.406;13.230;2024-03-29T10:16:04;2.87;;;1.33;;
4915;SDS011;70796;52.406;13.230;2024-03-29T10:18:30;1.70;;;1.00;;
4915;SDS011;70796;52.406;13.230;2024-03-29T10:21:00;2.70;;;1.30;;
4915;SDS011;70796;52.406;13.230;2024-03-29T10:23:29;4.10;;;1.30;;
4915;SDS011;70796;52.406;13.230;2024-03-29T10:25:55;2.90;;;1.20;;
4915;SDS011;70796;52.406;13.230;2024-03-29T10:28:21;1.50;;;1.20;;
4915;SDS011;70796;52.406;13.230;2024-03-29T10:30:47;4.30;;;1.23;;
4915;SDS011;70796;52.406;13.230;2024-03-29T10:33:13;3.40;;;1.57;;
4915;SDS011;70796;52.406;13.230;2024-03-29T10:35:44;2.40;;;1.17;;
4915;SDS011;70796;52.406;13.230;2024-03-29T10:38:10;2.57;;;1.30;;
4915;SDS011;70796;52.406;13.230;2024-03-29T10:40:40;3.00;;;1.30;;
4915;SDS011;70796;52.406;13.230;2024-03-29T10:43:10;1.87;;;1.20;;
4915;SDS011;70796;52.406;13.230;2024-03-29T10:45:38;2.03;;;1.30;;
4915;SDS011;70796;52.406;13.230;2024-03-29T10:48:05;1.47;;;1.00;;
4915;SDS011;70796;52.406;13.230;2024-03-29T10:50:36;1.50;;;1.33;;
4915;SDS011;70796;52.406;13.230;2024-03-29T10:53:06;3.63;;;1.20;;
4915;SDS011;70796;52.406;13.230;2024-03-29T10:55:35;2.90;;;1.30;;
4915;SDS011;70796;52.406;13.230;2024-03-29T10:58:01;2.23;;;1.13;;
4915;SDS011;70796;52.406;13.230;2024-03-29T11:00:29;2.83;;;1.20;;
4915;SDS011;70796;52.406;13.230;2024-03-29T11:05:54;3.07;;;1.50;;
4915;SDS011;70796;52.406;13.230;2024-03-29T11:08:24;1.13;;;1.03;;
4915;SDS011;70796;52.406;13.230;2024-03-29T11:10:53;1.57;;;1.27;;
4915;SDS011;70796;52.406;13.230;2024-03-29T11:16:19;1.97;;;1.20;;
4915;SDS011;70796;52.406;13.230;2024-03-29T11:18:45;2.13;;;1.30;;
4915;SDS011;70796;52.406;13.230;2024-03-29T11:21:13;6.07;;;1.30;;
4915;SDS011;70796;52.406;13.230;2024-03-29T11:23:50;1.73;;;1.10;;
4915;SDS011;70796;52.406;13.230;2024-03-29T11:26:18;1.57;;;1.17;;
4915;SDS011;70796;52.406;13.230;2024-03-29T11:28:49;1.83;;;1.20;;
4915;SDS011;70796;52.406;13.230;2024-03-29T11:31:17;2.13;;;1.00;;
4915;SDS011;70796;52.406;13.230;2024-03-29T11:36:19;1.20;;;1.10;;
4915;SDS011;70796;52.406;13.230;2024-03-29T11:38:52;3.80;;;1.30;;
4915;SDS011;70796;52.406;13.230;2024-03-29T11:41:37;4.47;;;1.50;;
4915;SDS011;70796;52.406;13.230;2024-03-29T11:44:11;1.77;;;1.10;;
4915;SDS011;70796;52.406;13.230;2024-03-29T11:46:37;3.20;;;1.30;;
4915;SDS011;70796;52.406;13.230;2024-03-29T11:49:04;3.07;;;1.43;;
4915;SDS011;70796;52.406;13.230;2024-03-29T11:51:30;1.87;;;1.10;;
4915;SDS011;70796;52.406;13.230;2024-03-29T11:53:56;1.30;;;1.20;;
4915;SDS011;70796;52.406;13.230;2024-03-29T11:56:22;1.73;;;1.20;;
4915;SDS011;70796;52.406;13.230;2024-03-29T11:58:48;2.03;;;1.30;;
4915;SDS011;70796;52.406;13.230;2024-03-29T12:01:14;1.03;;;0.93;;
4915;SDS011;70796;52.406;13.230;2024-03-29T12:03:40;2.20;;;1.13;;
4915;SDS011;70796;52.406;13.230;2024-03-29T12:06:06;1.23;;;1.13;;
4915;SDS011;70796;52.406;13.230;2024-03-29T12:08:33;1.63;;;1.10;;
4915;SDS011;70796;52.406;13.230;2024-03-29T12:11:01;3.03;;;1.20;;
4915;SDS011;70796;52.406;13.230;2024-03-29T12:13:27;2.30;;;1.10;;
4915;SDS011;70796;52.406;13.230;2024-03-29T12:15:53;2.67;;;1.50;;
4915;SDS011;70796;52.406;13.230;2024-03-29T12:18:19;1.53;;;1.33;;
4915;SDS011;70796;52.406;13.230;2024-03-29T12:20:49;2.17;;;1.73;;
4915;SDS011;70796;52.406;13.230;2024-03-29T12:23:16;2.07;;;1.60;;
4915;SDS011;70796;52.406;13.230;2024-03-29T12:25:43;2.43;;;1.30;;
4915;SDS011;70796;52.406;13.230;2024-03-29T12:28:12;2.37;;;1.40;;
4915;SDS011;70796;52.406;13.230;2024-03-29T12:30:43;1.83;;;1.73;;
4915;SDS011;70796;52.406;13.230;2024-03-29T12:33:20;3.50;;;1.60;;
4915;SDS011;70796;52.406;13.230;2024-03-29T12:35:47;1.57;;;1.20;;
4915;SDS011;70796;52.406;13.230;2024-03-29T12:38:15;2.50;;;1.20;;
4915;SDS011;70796;52.406;13.230;2024-03-29T12:40:43;1.87;;;1.30;;
4915;SDS011;70796;52.406;13.230;2024-03-29T12:43:12;1.63;;;1.10;;
4915;SDS011;70796;52.406;13.230;2024-03-29T12:45:41;1.47;;;1.23;;
4915;SDS011;70796;52.406;13.230;2024-03-29T12:48:11;2.80;;;1.00;;
4915;SDS011;70796;52.406;13.230;2024-03-29T12:50:39;3.13;;;0.97;;
4915;SDS011;70796;52.406;13.230;2024-03-29T12:53:06;1.53;;;1.07;;
4915;SDS011;70796;52.406;13.230;2024-03-29T12:55:33;2.50;;;0.87;;
4915;SDS011;70796;52.406;13.230;2024-03-29T12:58:04;4.63;;;1.10;;
4915;SDS011;70796;52.406;13.230;2024-03-29T13:00:36;2.07;;;1.10;;
4915;SDS011;70796;52.406;13.230;2024-03-29T13:03:02;9.80;;;0.93;;
4915;SDS011;70796;52.406;13.230;2024-03-29T13:05:28;1.40;;;1.13;;
4915;SDS011;70796;52.406;13.230;2024-03-29T13:08:01;2.20;;;1.27;;
4915;SDS011;70796;52.406;13.230;2024-03-29T13:10:28;2.27;;;1.30;;
4915;SDS011;70796;52.406;13.230;2024-03-29T13:12:54;3.23;;;1.27;;
4915;SDS011;70796;52.406;13.230;2024-03-29T13:15:20;1.53;;;1.13;;
4915;SDS011;70796;52.406;13.230;2024-03-29T13:17:53;3.20;;;1.47;;
4915;SDS011;70796;52.406;13.230;2024-03-29T13:20:23;3.50;;;1.30;;
4915;SDS011;70796;52.406;13.230;2024-03-29T13:22:49;5.30;;;1.30;;
4915;SDS011;70796;52.406;13.230;2024-03-29T13:25:16;6.60;;;1.50;;
4915;SDS011;70796;52.406;13.230;2024-03-29T13:27:42;1.67;;;0.90;;
4915;SDS011;70796;52.406;13.230;2024-03-29T13:30:09;3.70;;;1.20;;
4915;SDS011;70796;52.406;13.230;2024-03-29T13:32:36;3.10;;;1.03;;
4915;SDS011;70796;52.406;13.230;2024-03-29T13:35:05;1.03;;;0.93;;
4915;SDS011;70796;52.406;13.230;2024-03-29T13:37:44;1.80;;;1.03;;
4915;SDS011;70796;52.406;13.230;2024-03-29T13:40:11;1.53;;;1.00;;
4915;SDS011;70796;52.406;13.230;2024-03-29T13:42:38;2.07;;;0.97;;
4915;SDS011;70796;52.406;13.230;2024-03-29T13:45:04;1.90;;;1.33;;
4915;SDS011;70796;52.406;13.230;2024-03-29T13:47:35;1.57;;;1.00;;
4915;SDS011;70796;52.406;13.230;2024-03-29T13:50:06;1.63;;;1.30;;
4915;SDS011;70796;52.406;13.230;2024-03-29T13:52:32;2.17;;;1.40;;
4915;SDS011;70796;52.406;13.230;2024-03-29T13:54:59;1.83;;;0.90;;
4915;SDS011;70796;52.406;13.230;2024-03-29T13:57:24;2.10;;;1.20;;
4915;SDS011;70796;52.406;13.230;2024-03-29T13:59:50;3.10;;;1.63;;
4915;SDS011;70796;52.406;13.230;2024-03-29T14:02:17;4.83;;;1.30;;
4915;SDS011;70796;52.406;13.230;2024-03-29T14:04:43;1.20;;;1.10;;
4915;SDS011;70796;52.406;13.230;2024-03-29T14:07:10;1.53;;;1.03;;
4915;SDS011;70796;52.406;13.230;2024-03-29T14:09:36;2.20;;;1.10;;
4915;SDS011;70796;52.406;13.230;2024-03-29T14:12:02;2.13;;;1.23;;
4915;SDS011;70796;52.406;13.230;2024-03-29T14:14:29;2.27;;;1.10;;
4915;SDS011;70796;52.406;13.230;2024-03-29T14:16:55;1.37;;;1.07;;
4915;SDS011;70796;52.406;13.230;2024-03-29T14:19:20;3.70;;;1.10;;
4915;SDS011;70796;52.406;13.230;2024-03-29T14:21:46;2.63;;;1.20;;
4915;SDS011;70796;52.406;13.230;2024-03-29T14:24:12;2.27;;;1.30;;
4915;SDS011;70796;52.406;13.230;2024-03-29T14:26:37;3.03;;;1.60;;
4915;SDS011;70796;52.406;13.230;2024-03-29T14:29:03;4.60;;;1.03;;
4915;SDS011;70796;52.406;13.230;2024-03-29T14:31:29;2.60;;;1.37;;
4915;SDS011;70796;52.406;13.230;2024-03-29T14:33:56;3.37;;;1.07;;
4915;SDS011;70796;52.406;13.230;2024-03-29T14:36:22;1.80;;;1.27;;
4915;SDS011;70796;52.406;13.230;2024-03-29T14:38:48;1.80;;;1.00;;
4915;SDS011;70796;52.406;13.230;2024-03-29T14:41:13;1.70;;;0.93;;
4915;SDS011;70796;52.406;13.230;2024-03-29T14:43:38;1.07;;;1.00;;
4915;SDS011;70796;52.406;13.230;2024-03-29T14:46:05;2.00;;;1.20;;
4915;SDS011;70796;52.406;13.230;2024-03-29T14:48:30;1.97;;;1.00;;
4915;SDS011;70796;52.406;13.230;2024-03-29T14:50:56;7.60;;;0.90;;
4915;SDS011;70796;52.406;13.230;2024-03-29T14:53:23;1.40;;;1.13;;
4915;SDS011;70796;52.406;13.230;2024-03-29T14:55:48;3.93;;;0.97;;